Time;durP1;ratioP1;P1;durP2;ratioP2;P2;SDS_P1;SDS_P2;PMS_P1;PMS_P2;Temp;Humidity;BMP_temperature;BMP_pressure;BME280_temperature;BME280_humidity;BME280_pressure;Samples;Min_cycle;Max_cycle;Signal;HPM_P1;HPM_P2
2022/08/30 00:01:25;;;;;;;35.75;7.00;;;;;;;20.91;100.00;98131.72;4966067;28;20046;-57
2022/08/30 00:03:51;;;;;;;42.15;7.72;;;;;;;20.88;100.00;98142.59;4969016;28;20037;-55
2022/08/30 00:06:19;;;;;;;37.13;7.65;;;;;;;20.89;100.00;98131.00;4968133;28;20770;-55
2022/08/30 00:08:45;;;;;;;37.17;7.82;;;;;;;20.87;100.00;98140.06;4967714;28;20499;-57
2022/08/30 00:11:13;;;;;;;42.53;8.77;;;;;;;20.73;100.00;98133.19;4968251;28;20148;-54
2022/08/30 00:13:41;;;;;;;41.95;7.90;;;;;;;20.86;100.00;98139.22;4968897;28;20031;-53
2022/08/30 00:16:07;;;;;;;45.95;8.52;;;;;;;20.01;100.00;98145.00;4967163;28;20042;-54
2022/08/30 00:18:34;;;;;;;35.95;7.70;;;;;;;19.96;100.00;98144.50;4969284;28;20038;-54
2022/08/30 00:20:59;;;;;;;46.58;8.63;;;;;;;20.06;100.00;98140.19;4967171;28;20745;-55
2022/08/30 00:23:25;;;;;;;45.15;8.15;;;;;;;20.43;100.00;98137.31;4969279;28;20041;-54
2022/08/30 00:25:51;;;;;;;37.05;7.38;;;;;;;20.37;100.00;98135.16;4969694;28;20048;-53
2022/08/30 00:28:17;;;;;;;43.90;8.57;;;;;;;20.50;100.00;98137.69;4966421;28;20125;-54
2022/08/30 00:30:44;;;;;;;33.58;7.13;;;;;;;20.59;100.00;98135.13;4969518;28;20042;-52
2022/08/30 00:33:12;;;;;;;33.80;7.47;;;;;;;20.56;100.00;98127.41;4968276;28;20042;-56
2022/08/30 00:35:38;;;;;;;43.10;7.97;;;;;;;20.30;100.00;98131.31;4967738;28;20107;-53
2022/08/30 00:38:05;;;;;;;41.55;8.23;;;;;;;20.41;100.00;98134.78;4966541;28;20026;-54
2022/08/30 00:40:30;;;;;;;47.42;8.30;;;;;;;20.93;100.00;98135.06;4967315;28;20062;-56
2022/08/30 00:42:58;;;;;;;37.47;7.45;;;;;;;20.55;100.00;98139.00;4968018;28;20106;-57
2022/08/30 00:45:29;;;;;;;43.10;7.80;;;;;;;20.57;100.00;98139.72;4966832;28;20800;-56
2022/08/30 00:47:54;;;;;;;40.90;7.95;;;;;;;20.51;100.00;98147.28;4968368;28;20026;-56
2022/08/30 00:50:23;;;;;;;40.30;7.35;;;;;;;20.81;100.00;98141.41;4966659;28;20871;-53
2022/08/30 00:52:53;;;;;;;33.88;7.22;;;;;;;20.38;100.00;98142.13;4969134;28;20026;-53
2022/08/30 00:55:19;;;;;;;37.50;7.40;;;;;;;20.23;100.00;98142.38;4968752;28;20030;-55
2022/08/30 00:57:46;;;;;;;47.50;8.35;;;;;;;20.73;100.00;98133.19;4965954;28;20033;-53
2022/08/30 01:00:14;;;;;;;33.72;7.05;;;;;;;20.55;100.00;98144.28;4968491;28;20102;-53
2022/08/30 01:02:40;;;;;;;45.50;7.90;;;;;;;20.54;100.00;98139.94;4966696;28;20045;-53
2022/08/30 01:05:09;;;;;;;40.00;7.75;;;;;;;20.77;100.00;98135.50;4968899;28;20026;-53
2022/08/30 01:07:35;;;;;;;38.33;7.75;;;;;;;20.71;100.00;98137.78;4966144;28;20046;-54
2022/08/30 01:10:02;;;;;;;34.25;7.10;;;;;;;20.22;100.00;98135.41;4965916;28;20026;-54
2022/08/30 01:12:28;;;;;;;40.67;7.93;;;;;;;20.04;100.00;98136.84;4967657;28;20037;-53
2022/08/30 01:14:54;;;;;;;43.05;8.18;;;;;;;20.38;100.00;98124.44;4968447;28;20665;-53
2022/08/30 01:17:20;;;;;;;33.35;6.97;;;;;;;19.93;100.00;98128.88;4967291;28;20500;-54
2022/08/30 01:19:51;;;;;;;48.63;8.20;;;;;;;20.32;100.00;98134.66;4966678;28;20081;-53
2022/08/30 01:22:29;;;;;;;32.30;6.80;;;;;;;20.32;100.00;98139.97;4967368;28;20566;-56
2022/08/30 01:24:58;;;;;;;41.80;7.93;;;;;;;19.73;100.00;98141.00;4966162;28;20601;-54
2022/08/30 01:27:25;;;;;;;34.38;7.72;;;;;;;19.51;100.00;98134.66;4966561;28;20039;-53
2022/08/30 01:29:52;;;;;;;44.92;7.85;;;;;;;19.96;100.00;98144.50;4967814;28;20038;-53
2022/08/30 01:32:21;;;;;;;43.28;8.07;;;;;;;20.12;100.00;98130.94;4966136;28;20658;-53
2022/08/30 01:34:47;;;;;;;42.50;7.88;;;;;;;19.98;100.00;98142.63;4963674;28;20049;-54
2022/08/30 01:37:35;;;;;;;35.83;7.57;;;;;;;19.95;100.00;98137.56;4965350;28;20034;-54
2022/08/30 01:40:00;;;;;;;48.03;7.90;;;;;;;20.05;100.00;98133.22;4966374;28;20288;-55
2022/08/30 01:42:27;;;;;;;33.17;7.38;;;;;;;20.17;100.00;98129.63;4964941;28;20043;-53
2022/08/30 01:44:52;;;;;;;38.28;7.45;;;;;;;20.22;100.00;98127.44;4981244;28;20436;-53
2022/08/30 01:47:18;;;;;;;31.75;7.30;;;;;;;20.12;100.00;98133.59;4965980;28;20791;-55
2022/08/30 01:49:45;;;;;;;36.08;7.20;;;;;;;20.18;100.00;98143.69;4968907;28;20026;-54
2022/08/30 01:52:11;;;;;;;46.80;8.23;;;;;;;20.27;100.00;98142.13;4966247;28;20073;-53
2022/08/30 01:54:40;;;;;;;35.80;7.03;;;;;;;20.56;100.00;98138.00;4965062;28;20130;-53
2022/08/30 01:57:08;;;;;;;42.17;8.13;;;;;;;20.89;100.00;98149.56;4964425;28;20039;-56
2022/08/30 01:59:35;;;;;;;33.65;7.10;;;;;;;20.75;100.00;98147.16;4966070;28;20105;-53
2022/08/30 02:02:02;;;;;;;36.83;7.07;;;;;;;21.13;100.00;98145.88;4964628;28;20093;-53
2022/08/30 02:04:27;;;;;;;39.38;7.53;;;;;;;20.49;100.00;98138.63;4966739;28;20031;-54
2022/08/30 02:06:53;;;;;;;35.75;7.07;;;;;;;20.28;100.00;98138.53;4966563;28;20676;-53
2022/08/30 02:09:18;;;;;;;45.95;8.23;;;;;;;19.91;100.00;98147.53;4968934;28;20647;-54
2022/08/30 02:11:44;;;;;;;36.65;7.78;;;;;;;19.76;100.00;98143.44;4965948;28;20105;-53
2022/08/30 02:14:10;;;;;;;42.92;8.07;;;;;;;19.70;100.00;98133.25;4967530;28;20031;-53
2022/08/30 02:16:36;;;;;;;37.83;7.35;;;;;;;19.79;100.00;98144.00;4969013;28;20062;-53
2022/08/30 02:19:01;;;;;;;41.22;7.72;;;;;;;20.50;100.00;98138.50;4971407;28;20057;-53
2022/08/30 02:21:27;;;;;;;49.38;8.40;;;;;;;20.36;100.00;98136.09;4970808;28;20414;-56
2022/08/30 02:23:53;;;;;;;36.65;7.47;;;;;;;19.77;100.00;98139.81;4971763;28;20062;-53
2022/08/30 02:26:19;;;;;;;37.20;7.43;;;;;;;19.48;100.00;98136.69;4969667;28;20057;-53
2022/08/30 02:28:44;;;;;;;42.53;7.32;;;;;;;19.67;100.00;98136.13;4970100;28;20026;-53
2022/08/30 02:31:11;;;;;;;41.38;7.88;;;;;;;19.38;100.00;98133.91;4970383;28;20643;-53
2022/08/30 02:33:37;;;;;;;55.13;8.95;;;;;;;19.65;100.00;98136.28;4967784;28;20082;-53
2022/08/30 02:36:04;;;;;;;46.85;8.45;;;;;;;20.27;100.00;98128.88;4973028;28;20035;-56
2022/08/30 02:38:29;;;;;;;57.80;9.23;;;;;;;19.61;100.00;98130.38;4970357;28;20388;-53
2022/08/30 02:40:55;;;;;;;63.80;9.88;;;;;;;19.99;100.00;98137.19;4970387;28;20548;-52
2022/08/30 02:43:20;;;;;;;41.70;7.88;;;;;;;19.78;100.00;98139.69;4968441;28;20046;-52
2022/08/30 02:45:45;;;;;;;56.42;8.52;;;;;;;19.81;100.00;98142.09;4970059;28;20046;-53
2022/08/30 02:48:11;;;;;;;46.67;8.18;;;;;;;19.46;100.00;98139.44;4971429;28;20101;-55
2022/08/30 02:50:41;;;;;;;48.70;8.77;;;;;;;19.56;100.00;98142.25;4968096;28;20045;-53
2022/08/30 02:53:07;;;;;;;47.70;8.63;;;;;;;19.45;100.00;98146.53;4968193;28;20027;-52
2022/08/30 02:55:33;;;;;;;53.50;9.20;;;;;;;19.49;100.00;98146.31;4967741;28;20057;-54
2022/08/30 02:57:58;;;;;;;50.20;8.73;;;;;;;19.54;100.00;98138.88;4970555;28;20030;-52
2022/08/30 03:00:24;;;;;;;44.75;8.13;;;;;;;19.61;100.00;98140.09;4968798;28;20058;-52
2022/08/30 03:02:49;;;;;;;61.75;9.93;;;;;;;19.57;100.00;98138.63;4968362;28;20035;-53
2022/08/30 03:05:16;;;;;;;45.25;8.57;;;;;;;19.13;100.00;98138.34;4968568;28;20018;-54
2022/08/30 03:07:42;;;;;;;42.75;7.65;;;;;;;19.27;100.00;98134.69;4969431;28;20022;-53
2022/08/30 03:10:09;;;;;;;46.45;8.25;;;;;;;19.31;100.00;98138.78;4968317;28;20019;-55
2022/08/30 03:12:35;;;;;;;41.83;8.85;;;;;;;19.38;100.00;98132.09;4969258;28;20026;-53
2022/08/30 03:15:00;;;;;;;53.47;8.85;;;;;;;19.71;100.00;98133.16;4969365;28;20041;-53
2022/08/30 03:17:26;;;;;;;44.63;8.40;;;;;;;19.53;100.00;98126.59;4968506;28;20042;-54
2022/08/30 03:19:52;;;;;;;47.72;8.25;;;;;;;19.34;100.00;98138.56;4968673;28;20121;-53
2022/08/30 03:22:18;;;;;;;42.10;8.05;;;;;;;19.38;100.00;98133.91;4967852;28;20113;-54
2022/08/30 03:24:44;;;;;;;47.20;8.27;;;;;;;19.29;100.00;98134.59;4968873;28;20470;-54
2022/08/30 03:27:10;;;;;;;48.58;8.77;;;;;;;19.40;100.00;98138.09;4969088;28;20453;-53
2022/08/30 03:29:36;;;;;;;42.45;8.35;;;;;;;19.51;100.00;98133.81;4969387;28;20099;-53
2022/08/30 03:32:02;;;;;;;49.45;8.40;;;;;;;19.62;100.00;98136.50;4970180;28;20035;-53
2022/08/30 03:34:27;;;;;;;37.63;7.18;;;;;;;19.49;100.00;98138.38;4968671;28;20046;-53
2022/08/30 03:36:54;;;;;;;39.38;7.55;;;;;;;19.78;100.00;98147.63;4970761;28;20039;-52
2022/08/30 03:39:22;;;;;;;42.95;8.35;;;;;;;19.36;100.00;98147.22;4969485;28;20030;-53
2022/08/30 03:41:47;;;;;;;44.75;8.50;;;;;;;18.91;100.00;98144.38;4970310;28;20106;-54
2022/08/30 03:44:13;;;;;;;49.42;9.10;;;;;;;18.84;100.00;98151.09;4967949;28;20546;-54
2022/08/30 03:46:38;;;;;;;43.17;8.35;;;;;;;18.90;100.00;98155.91;4969205;28;20133;-54
2022/08/30 03:49:05;;;;;;;49.38;8.63;;;;;;;18.78;100.00;98151.47;4970448;28;20418;-53
2022/08/30 03:51:32;;;;;;;39.25;7.75;;;;;;;18.84;100.00;98159.00;4969019;28;20815;-52
2022/08/30 03:53:57;;;;;;;43.70;8.02;;;;;;;19.37;100.00;98156.88;4969211;28;20030;-53
2022/08/30 03:56:23;;;;;;;44.05;8.25;;;;;;;19.39;100.00;98156.72;4969948;28;20034;-52
2022/08/30 03:58:48;;;;;;;49.60;8.43;;;;;;;18.49;100.00;98159.69;4969753;28;20031;-52
2022/08/30 04:01:14;;;;;;;46.05;8.50;;;;;;;18.81;100.00;98156.59;4968097;28;20034;-52
2022/08/30 04:03:39;;;;;;;45.90;8.60;;;;;;;18.96;100.00;98155.47;4968078;28;20041;-52
2022/08/30 04:06:05;;;;;;;49.67;8.68;;;;;;;19.20;100.00;98157.25;4969078;28;20066;-53
2022/08/30 04:08:30;;;;;;;51.47;9.05;;;;;;;18.99;100.00;98149.97;4968965;28;20030;-53
2022/08/30 04:10:56;;;;;;;52.53;9.07;;;;;;;19.09;100.00;98159.84;4968400;28;20049;-52
2022/08/30 04:13:22;;;;;;;31.73;7.22;;;;;;;19.18;100.00;98157.38;4967255;28;20041;-53
2022/08/30 04:15:48;;;;;;;37.65;7.50;;;;;;;19.29;100.00;98156.56;4968097;28;20467;-53
2022/08/30 04:18:14;;;;;;;43.17;8.32;;;;;;;19.33;100.00;98165.13;4967344;28;20030;-52
2022/08/30 04:20:40;;;;;;;43.63;7.80;;;;;;;19.64;100.00;98168.97;4965563;28;20109;-53
2022/08/30 04:23:08;;;;;;;42.30;8.13;;;;;;;18.99;100.00;98168.47;4969168;28;20034;-53
2022/08/30 04:25:38;;;;;;;45.25;7.75;;;;;;;19.47;100.00;98169.41;4967096;28;20030;-52
2022/08/30 04:28:04;;;;;;;39.58;7.70;;;;;;;19.17;100.00;98168.06;4966548;28;20042;-52
2022/08/30 04:30:30;;;;;;;41.30;7.95;;;;;;;19.12;100.00;98170.22;4967211;28;20042;-52
2022/08/30 04:32:56;;;;;;;35.75;8.25;;;;;;;18.46;100.00;98175.75;4968776;28;20038;-52
2022/08/30 04:35:22;;;;;;;40.60;8.63;;;;;;;18.62;100.00;98171.09;4968192;28;20058;-53
2022/08/30 04:37:47;;;;;;;48.20;8.88;;;;;;;18.79;100.00;98179.59;4967542;28;20112;-53
2022/08/30 04:40:13;;;;;;;44.65;8.27;;;;;;;18.22;100.00;98176.53;4968945;28;20030;-53
2022/08/30 04:42:40;;;;;;;45.95;8.70;;;;;;;18.82;100.00;98174.97;4966215;28;20118;-54
2022/08/30 04:45:11;;;;;;;41.10;8.40;;;;;;;18.79;100.00;98179.59;4967168;28;20706;-52
2022/08/30 04:47:38;;;;;;;49.23;9.27;;;;;;;18.55;100.00;98180.38;4968985;28;20416;-53
2022/08/30 04:50:07;;;;;;;44.55;8.57;;;;;;;18.95;100.00;98185.50;4967682;28;20042;-54
2022/08/30 04:52:32;;;;;;;32.63;7.72;;;;;;;18.65;100.00;98189.34;4968529;28;20039;-53
2022/08/30 04:54:58;;;;;;;47.95;9.02;;;;;;;18.69;100.00;98184.69;4967870;28;20037;-53
2022/08/30 04:57:25;;;;;;;28.83;7.40;;;;;;;18.85;100.00;98185.31;4967918;28;20055;-55
2022/08/30 04:59:51;;;;;;;38.30;7.78;;;;;;;19.74;100.00;98188.53;4967731;28;20035;-54
2022/08/30 05:02:17;;;;;;;43.17;8.38;;;;;;;19.43;100.00;98195.25;4967000;28;20110;-54
2022/08/30 05:05:38;;;;;;;38.97;8.00;;;;;;;19.42;100.00;98194.38;4966532;28;20093;-54
2022/08/30 05:07:28;;;;;;;45.17;8.50;;;;;;;19.31;100.00;98196.97;4966890;28;20568;-53
2022/08/30 05:09:53;;;;;;;33.17;7.70;;;;;;;19.41;100.00;98202.44;4968703;28;20109;-53
2022/08/30 05:12:19;;;;;;;35.35;7.22;;;;;;;19.58;100.00;98209.13;4966208;28;20113;-54
2022/08/30 05:14:44;;;;;;;37.42;7.65;;;;;;;20.00;100.00;98206.88;4968343;28;20042;-52
2022/08/30 05:17:10;;;;;;;48.22;8.27;;;;;;;19.83;100.00;98195.78;4966961;28;20034;-53
2022/08/30 05:19:35;;;;;;;34.42;7.10;;;;;;;20.47;100.00;98189.09;4967204;28;20659;-53
2022/08/30 05:22:00;;;;;;;38.45;7.63;;;;;;;20.06;100.00;98195.81;4968302;28;20516;-53
2022/08/30 05:24:26;;;;;;;39.85;7.63;;;;;;;20.15;100.00;98200.41;4970249;28;20088;-52
2022/08/30 05:26:51;;;;;;;33.08;6.88;;;;;;;20.49;100.00;98195.09;4966220;28;20038;-52
2022/08/30 05:29:17;;;;;;;43.22;7.82;;;;;;;21.12;100.00;98199.91;4968612;28;20065;-52
2022/08/30 05:31:43;;;;;;;40.47;7.32;;;;;;;23.40;100.00;98215.06;4968594;28;20065;-53
2022/08/30 05:34:10;;;;;;;33.97;6.93;;;;;;;23.85;100.00;98203.84;4965994;28;20038;-53
2022/08/30 05:36:37;;;;;;;34.38;6.63;;;;;;;25.20;100.00;98211.53;4968588;28;20042;-52
2022/08/30 05:39:07;;;;;;;35.78;6.78;;;;;;;24.24;100.00;98209.09;4968202;28;20037;-53
2022/08/30 05:41:33;;;;;;;33.47;7.25;;;;;;;26.09;100.00;98209.84;4969067;28;20571;-54
2022/08/30 05:44:00;;;;;;;35.97;6.85;;;;;;;26.33;97.07;98199.31;4967598;28;20181;-52
2022/08/30 05:46:30;;;;;;;40.17;7.35;;;;;;;27.50;86.97;98203.13;4968577;28;20154;-53
2022/08/30 05:48:56;;;;;;;29.90;5.88;;;;;;;28.40;80.40;98201.44;4967934;28;20026;-53
2022/08/30 05:51:24;;;;;;;34.10;6.57;;;;;;;27.33;81.11;98196.06;4966778;28;20066;-54
2022/08/30 05:53:51;;;;;;;25.67;5.60;;;;;;;26.26;88.42;98197.44;4967376;28;20060;-53
2022/08/30 05:56:19;;;;;;;29.15;6.10;;;;;;;25.29;89.28;98199.13;4966036;28;20050;-53
2022/08/30 05:58:45;;;;;;;25.65;6.00;;;;;;;25.24;93.23;98196.09;4968410;28;20621;-54
2022/08/30 06:01:18;;;;;;;29.42;6.13;;;;;;;25.15;97.09;98197.78;4968130;28;20794;-53
2022/08/30 06:03:44;;;;;;;27.48;6.10;;;;;;;26.57;87.52;98199.59;4967655;28;20545;-53
2022/08/30 06:06:09;;;;;;;27.85;6.10;;;;;;;25.45;90.42;98193.94;4967732;28;20043;-55
2022/08/30 06:08:34;;;;;;;31.58;6.20;;;;;;;24.89;97.59;98197.66;4970257;28;20022;-53
2022/08/30 06:11:00;;;;;;;32.08;6.15;;;;;;;26.26;88.30;98195.59;4968226;28;20111;-53
2022/08/30 06:13:25;;;;;;;26.20;5.43;;;;;;;26.12;87.79;98196.19;4966651;28;20547;-53
2022/08/30 06:15:51;;;;;;;24.65;5.75;;;;;;;25.82;91.72;98198.25;4966988;28;20126;-53
2022/08/30 06:18:17;;;;;;;25.60;5.38;;;;;;;25.89;88.83;98206.50;4982659;28;20026;-53
2022/08/30 06:20:46;;;;;;;30.95;6.43;;;;;;;26.52;83.91;98197.41;4967038;28;20073;-53
2022/08/30 06:23:12;;;;;;;25.73;5.47;;;;;;;28.38;76.31;98198.91;4966518;28;20030;-53
2022/08/30 06:25:38;;;;;;;25.67;5.85;;;;;;;26.60;83.73;98196.63;4967520;28;20100;-53
2022/08/30 06:28:05;;;;;;;23.35;5.28;;;;;;;28.63;74.04;98207.72;4976633;28;20074;-53
2022/08/30 06:30:30;;;;;;;32.08;6.10;;;;;;;26.90;81.43;98208.63;4965989;28;20045;-53
2022/08/30 06:32:56;;;;;;;27.60;5.90;;;;;;;27.90;79.28;98202.50;4984325;28;20031;-53
2022/08/30 06:35:21;;;;;;;25.77;5.72;;;;;;;28.39;75.21;98205.09;4967994;28;20018;-53
2022/08/30 06:37:46;;;;;;;25.23;5.78;;;;;;;28.86;70.79;98209.69;4982504;28;20798;-53
2022/08/30 06:40:13;;;;;;;25.08;5.70;;;;;;;28.69;73.30;98210.75;4969532;28;20035;-53
2022/08/30 06:42:38;;;;;;;26.27;5.80;;;;;;;28.33;76.06;98208.47;4976757;28;20061;-55
2022/08/30 06:45:05;;;;;;;22.83;5.13;;;;;;;30.84;64.35;98206.25;4967023;28;20105;-53
2022/08/30 06:47:30;;;;;;;22.45;5.18;;;;;;;29.77;63.47;98207.31;4967939;28;20534;-54
2022/08/30 06:49:57;;;;;;;27.08;5.70;;;;;;;31.37;62.79;98219.53;4969043;28;20133;-57
2022/08/30 06:52:22;;;;;;;21.52;5.25;;;;;;;34.02;52.64;98217.78;4967878;28;20042;-54
2022/08/30 06:54:48;;;;;;;23.33;5.63;;;;;;;33.25;52.46;98219.91;4968095;28;20148;-54
2022/08/30 06:57:14;;;;;;;19.75;4.95;;;;;;;34.59;48.22;98213.56;4970483;28;20038;-54
2022/08/30 06:59:39;;;;;;;19.92;4.70;;;;;;;34.63;45.55;98206.69;4968567;28;20027;-55
2022/08/30 07:02:06;;;;;;;20.83;5.53;;;;;;;33.83;46.11;98205.91;4966859;28;20480;-54
2022/08/30 07:04:32;;;;;;;13.90;4.53;;;;;;;34.95;43.74;98206.81;4973940;28;20038;-55
2022/08/30 07:06:57;;;;;;;16.75;4.65;;;;;;;35.52;43.23;98213.19;4972593;28;20042;-53
2022/08/30 07:09:23;;;;;;;16.00;4.65;;;;;;;36.33;43.52;98212.63;4973984;28;20037;-54
2022/08/30 07:11:49;;;;;;;13.77;4.50;;;;;;;37.62;40.61;98209.81;4973054;28;20049;-55
2022/08/30 07:14:15;;;;;;;17.17;4.93;;;;;;;36.75;39.76;98210.13;4973569;28;20026;-54
2022/08/30 07:16:40;;;;;;;15.80;4.50;;;;;;;38.59;37.49;98202.38;4973943;28;20096;-55
2022/08/30 07:19:06;;;;;;;16.15;4.72;;;;;;;35.84;40.01;98215.94;4971873;28;20022;-56
2022/08/30 07:21:37;;;;;;;11.65;3.90;;;;;;;36.83;40.34;98207.06;4973559;28;20135;-55
2022/08/30 07:24:04;;;;;;;15.23;4.70;;;;;;;34.97;42.23;98215.56;4988832;28;20041;-55
2022/08/30 07:26:40;;;;;;;9.60;3.92;;;;;;;38.42;35.79;98213.97;4978109;28;20042;-54
2022/08/30 07:29:07;;;;;;;14.52;4.25;;;;;;;38.48;35.46;98213.00;4970723;28;20400;-54
2022/08/30 07:31:34;;;;;;;14.15;4.55;;;;;;;36.69;37.96;98214.56;4971504;28;20043;-55
2022/08/30 07:34:04;;;;;;;12.45;4.50;;;;;;;36.80;37.56;98218.41;4970147;28;20039;-56
2022/08/30 07:36:29;;;;;;;15.35;4.90;;;;;;;38.22;35.63;98218.94;4971647;28;20073;-54
2022/08/30 07:38:54;;;;;;;10.52;4.13;;;;;;;38.68;35.57;98209.94;4971718;28;20062;-56
2022/08/30 07:41:33;;;;;;;17.15;5.05;;;;;;;37.80;36.77;98212.47;4973318;28;20124;-57
2022/08/30 07:43:59;;;;;;;15.13;4.70;;;;;;;37.40;35.79;98215.75;4972986;28;20039;-53
2022/08/30 07:46:24;;;;;;;18.95;4.82;;;;;;;40.36;32.74;98210.56;4970356;28;20264;-54
2022/08/30 07:48:53;;;;;;;17.95;4.60;;;;;;;38.01;34.66;98212.97;4972513;28;20056;-57
2022/08/30 07:51:21;;;;;;;12.85;4.65;;;;;;;39.62;34.92;98206.06;4971634;28;20061;-56
2022/08/30 07:53:46;;;;;;;14.70;4.75;;;;;;;38.65;34.76;98212.31;4972960;28;20574;-54
2022/08/30 07:56:12;;;;;;;14.57;4.15;;;;;;;38.80;35.82;98209.88;4971091;28;20050;-55
2022/08/30 07:58:38;;;;;;;16.08;4.75;;;;;;;38.98;34.83;98222.53;4971199;28;20117;-56
2022/08/30 08:01:08;;;;;;;16.55;5.13;;;;;;;40.26;32.58;98215.88;4970335;28;20078;-55
2022/08/30 08:03:34;;;;;;;18.15;5.50;;;;;;;39.40;33.43;98224.19;4987318;28;20553;-55
2022/08/30 08:06:02;;;;;;;12.48;4.82;;;;;;;40.44;32.35;98223.81;4971301;28;20778;-56
2022/08/30 08:08:27;;;;;;;13.23;4.65;;;;;;;40.52;31.75;98235.41;4970857;28;20045;-54
2022/08/30 08:10:53;;;;;;;20.05;5.55;;;;;;;39.40;33.75;98224.19;4969912;28;20034;-54
2022/08/30 08:13:18;;;;;;;15.02;4.68;;;;;;;39.45;34.40;98221.56;4971224;28;20129;-53
2022/08/30 08:15:44;;;;;;;19.92;5.38;;;;;;;39.69;34.33;98223.13;4970450;28;20042;-53
2022/08/30 08:18:09;;;;;;;15.27;4.72;;;;;;;38.33;34.03;98220.84;4971617;28;20023;-53
2022/08/30 08:20:35;;;;;;;13.65;4.93;;;;;;;40.07;32.00;98223.47;4972328;28;20108;-55
2022/08/30 08:23:01;;;;;;;16.17;5.03;;;;;;;41.06;31.06;98235.56;4970930;28;20038;-54
2022/08/30 08:25:26;;;;;;;11.70;4.63;;;;;;;38.99;33.62;98223.34;4969839;28;20162;-53
2022/08/30 08:27:52;;;;;;;14.85;5.15;;;;;;;41.00;31.94;98225.66;4968814;28;20035;-53
2022/08/30 08:30:19;;;;;;;12.57;4.68;;;;;;;39.60;32.45;98219.13;4983803;28;20036;-53
2022/08/30 08:32:45;;;;;;;14.90;4.65;;;;;;;39.27;31.99;98215.22;4985881;28;20041;-54
2022/08/30 08:35:11;;;;;;;14.15;5.00;;;;;;;38.39;33.29;98219.88;4971054;28;20034;-53
2022/08/30 08:37:38;;;;;;;11.77;4.80;;;;;;;38.78;32.63;98213.94;4970811;28;20065;-52
2022/08/30 08:40:05;;;;;;;16.45;5.35;;;;;;;37.40;34.88;98210.31;4984032;28;20034;-54
2022/08/30 08:43:04;;;;;;;18.95;5.85;;;;;;;37.77;34.96;98204.78;4971711;28;20029;-53
2022/08/30 08:45:54;;;;;;;15.15;5.22;;;;;;;38.54;33.20;98195.69;4971295;28;20470;-52
2022/08/30 08:48:20;;;;;;;22.38;6.47;;;;;;;39.06;31.60;98185.91;4970401;28;20540;-53
2022/08/30 08:53:34;;;;;;;16.42;5.30;;;;;;;40.40;31.59;98194.50;4970875;28;20814;-52
2022/08/30 08:56:00;;;;;;;17.25;5.95;;;;;;;39.24;30.54;98198.50;4970318;28;20043;-53
2022/08/30 08:58:38;;;;;;;14.65;5.18;;;;;;;39.54;31.14;98202.91;4969635;28;20037;-53
2022/08/30 09:01:05;;;;;;;20.10;6.10;;;;;;;40.12;31.44;98198.16;4970411;28;20033;-53
2022/08/30 09:03:31;;;;;;;18.23;4.93;;;;;;;40.23;31.14;98192.59;4970750;28;20037;-53
2022/08/30 09:05:57;;;;;;;13.38;5.03;;;;;;;38.55;32.37;98191.13;4984064;28;20041;-53
2022/08/30 09:08:23;;;;;;;17.73;5.30;;;;;;;39.35;32.26;98196.81;4969820;28;20489;-53
2022/08/30 09:10:57;;;;;;;22.15;5.82;;;;;;;37.94;33.96;98198.66;4968872;28;20670;-54
2022/08/30 09:13:23;;;;;;;18.55;5.63;;;;;;;38.45;33.32;98191.66;4971233;28;20026;-53
2022/08/30 09:15:50;;;;;;;17.33;4.80;;;;;;;39.97;30.83;98191.38;4970480;28;20791;-53
2022/08/30 09:18:17;;;;;;;19.45;5.82;;;;;;;36.01;35.95;98207.22;4969279;28;20069;-54
2022/08/30 09:20:48;;;;;;;16.67;4.97;;;;;;;38.04;32.12;98196.16;4973809;28;20417;-52
2022/08/30 09:23:14;;;;;;;15.75;5.10;;;;;;;41.08;28.93;98197.00;4972027;28;20064;-53
2022/08/30 09:26:01;;;;;;;16.00;5.20;;;;;;;39.19;31.24;98196.53;4968243;28;20412;-53
2022/08/30 09:28:43;;;;;;;15.80;4.97;;;;;;;40.04;30.21;98202.16;4968498;28;20304;-53
2022/08/30 09:31:24;;;;;;;17.98;5.13;;;;;;;39.76;30.44;98200.28;4967668;28;20122;-55
2022/08/30 09:33:54;;;;;;;14.15;4.70;;;;;;;41.08;28.52;98200.56;4972858;28;20030;-53
2022/08/30 09:36:25;;;;;;;14.87;4.97;;;;;;;40.70;28.38;98194.09;4966073;28;20130;-53
2022/08/30 09:39:03;;;;;;;12.20;4.40;;;;;;;43.09;25.90;98173.59;4970410;28;20032;-53
2022/08/30 09:41:38;;;;;;;17.55;5.03;;;;;;;37.86;31.72;98190.81;4969998;28;20062;-52
2022/08/30 09:44:30;;;;;;;15.95;4.63;;;;;;;39.07;29.98;98187.56;4967800;28;20034;-55
2022/08/30 09:47:00;;;;;;;13.25;4.10;;;;;;;37.79;30.53;98183.59;4970731;28;20049;-53
2022/08/30 09:49:31;;;;;;;13.52;4.22;;;;;;;37.38;29.68;98168.91;4966782;28;20622;-53
2022/08/30 09:52:15;;;;;;;10.63;3.70;;;;;;;38.22;28.59;98165.31;4971314;28;20085;-53
2022/08/30 09:54:56;;;;;;;13.25;3.90;;;;;;;39.07;26.80;98173.94;4970427;28;20036;-52
2022/08/30 09:58:09;;;;;;;16.30;4.47;;;;;;;38.41;28.51;98174.16;4967147;28;20522;-55
2022/08/30 10:00:42;;;;;;;16.25;4.40;;;;;;;36.81;29.67;98176.59;4939564;29;20073;-53
2022/08/30 10:03:39;;;;;;;13.95;4.57;;;;;;;38.06;28.85;98161.34;4966440;28;20504;-53
2022/08/30 10:06:12;;;;;;;19.17;4.43;;;;;;;38.79;28.14;98159.19;4969718;28;20054;-53
2022/08/30 10:09:06;;;;;;;19.52;4.75;;;;;;;37.41;29.23;98168.47;4969073;28;20042;-54
2022/08/30 10:11:43;;;;;;;13.75;4.03;;;;;;;38.26;27.73;98160.22;4968229;28;20130;-53
2022/08/30 10:14:24;;;;;;;14.52;4.35;;;;;;;38.04;27.99;98152.59;4970059;28;20806;-53
2022/08/30 10:17:04;;;;;;;23.90;5.73;;;;;;;37.96;29.24;98156.50;4969157;28;20049;-55
2022/08/30 10:19:48;;;;;;;16.80;4.68;;;;;;;37.13;29.93;98149.19;4969525;28;20294;-55
2022/08/30 10:22:22;;;;;;;27.13;5.65;;;;;;;36.50;30.61;98148.47;4969490;28;20030;-55
2022/08/30 10:25:04;;;;;;;31.98;6.15;;;;;;;37.40;30.52;98150.47;4968218;28;20508;-53
2022/08/30 10:27:57;;;;;;;18.27;4.47;;;;;;;36.50;31.29;98143.06;4970126;28;20031;-54
2022/08/30 10:30:23;;;;;;;19.98;4.68;;;;;;;36.66;31.22;98157.91;4967301;28;20034;-54
2022/08/30 10:32:51;;;;;;;19.80;4.55;;;;;;;38.72;28.53;98137.50;4965928;28;20778;-54
2022/08/30 10:35:23;;;;;;;27.60;5.95;;;;;;;35.19;32.49;98137.50;4963792;28;20023;-53
2022/08/30 10:37:57;;;;;;;21.17;4.68;;;;;;;36.42;31.38;98118.94;4970816;28;20062;-55
2022/08/30 10:43:25;;;;;;;28.27;5.43;;;;;;;35.23;31.62;98117.00;4972009;28;20068;-54
2022/08/30 10:45:57;;;;;;;22.50;5.15;;;;;;;36.95;31.49;98121.00;4970712;28;20050;-56
2022/08/30 10:48:27;;;;;;;22.83;4.70;;;;;;;35.69;32.63;98115.84;4973735;28;20030;-54
2022/08/30 10:50:57;;;;;;;20.13;5.03;;;;;;;36.60;31.68;98120.81;4972709;28;20046;-55
2022/08/30 10:53:42;;;;;;;22.50;4.80;;;;;;;35.91;32.49;98118.16;4972779;28;20523;-55
2022/08/30 10:56:20;;;;;;;26.58;5.70;;;;;;;36.78;31.52;98111.81;4973327;28;20046;-53
2022/08/30 10:58:46;;;;;;;19.67;4.65;;;;;;;36.48;31.27;98112.56;4969601;28;20073;-53
2022/08/30 11:01:30;;;;;;;19.90;5.00;;;;;;;36.47;31.77;98116.38;4971082;28;20046;-54
2022/08/30 11:04:17;;;;;;;15.45;4.15;;;;;;;37.61;28.79;98099.31;4972244;28;20070;-54
2022/08/30 11:06:57;;;;;;;15.30;4.25;;;;;;;37.49;29.63;98106.63;4969155;28;20049;-56
2022/08/30 11:09:38;;;;;;;21.27;4.50;;;;;;;36.91;30.63;98100.78;4975364;28;20114;-53
2022/08/30 11:12:09;;;;;;;;;;;;;;;34.68;33.15;98101.25;4972319;28;20047;-53
2022/08/30 11:14:39;;;;;;;20.35;4.72;;;;;;;36.20;30.25;98105.78;4974034;28;20402;-55
2022/08/30 11:17:19;;;;;;;20.63;4.85;;;;;;;36.15;29.74;98100.16;4972510;28;20035;-56
2022/08/30 11:19:45;;;;;;;26.27;5.28;;;;;;;38.59;27.37;98104.25;4971476;28;20034;-54
2022/08/30 11:22:23;;;;;;;25.48;5.05;;;;;;;36.22;28.47;98100.97;4969247;28;20047;-54
2022/08/30 11:25:06;;;;;;;22.38;4.95;;;;;;;37.64;28.52;98098.84;4971441;28;20038;-54
2022/08/30 11:27:58;;;;;;;20.35;4.47;;;;;;;36.56;27.75;98087.84;4969341;28;20673;-54
2022/08/30 11:30:23;;;;;;;;;;;;;;;36.32;27.53;98094.16;4968824;28;20046;-52
2022/08/30 11:33:28;;;;;;;30.47;5.93;;;;;;;34.13;31.26;98092.63;4968103;28;19935;-53
2022/08/30 11:35:54;;;;;;;25.95;4.97;;;;;;;35.51;30.12;98084.06;4969241;28;20912;-54